Kezdőlap
METAR-TAF:

METAR-TAF

Repülőterek :

Middleton Island, Alaszka, Amerikai Egyesült Államok

földrajzi szélesség: 59-26N, földrajzi hosszúság: 146-18W, magasság: 27 m

Jelenlegi meteorológiai megfigyelések

A jelentés 29 perccel ezelõtt készült, 17:51 UTC
Kelet-északkeleti szél 18 kt
Hőmérséklet 3°C
Páratartalom 100%
Légköri nyomás 1005 hPa
Látótávolság: 6.4 km
Borult 1100 lábon
enyhe esõ, Párásság

METAR: PAMD 061751Z AUTO 07018KT 4SM -RA BR OVC011 03/03 A2967 RMK AO2 SLP033 P0000 60000 T00330028 10033 20022 58001

Idő: 09:20 (18:20 UTC)


TAF: hiányzik

Meteorológiai megfigyelések és előrejelzések több, mint 4000 repülőtéren (METAR és TAF jelentéseket).

A térképen piros és sárga pontok jelzik az elérhető meteorológiai állomásokat.

Mozgassa az egeret a pont fölött, hogy megjelenjen az állomás neve.

Azután kattintson az időjárási megfigyelések és előrejelzések megtekintéséhez.

A térkép megváltoztatása: kattintson a fekete keresztel jelölt zöld gombra ráközelítéshez, a vonallal jelölt zöld gombra távolításhoz, vagy a zöld nyilakra a szomszédos térképek eléréséhez.


METAR-TAF: